sensor_id;sensor_type;location;lat;lon;timestamp;temperature;humidity
27492;DHT22;14927;51.210;6.838;2023-11-21T00:02:03;13.90;72.00
27492;DHT22;14927;51.210;6.838;2023-11-21T00:04:48;13.90;72.00
27492;DHT22;14927;51.210;6.838;2023-11-21T00:07:33;13.90;71.90
27492;DHT22;14927;51.210;6.838;2023-11-21T00:10:18;13.80;71.80
27492;DHT22;14927;51.210;6.838;2023-11-21T00:13:02;13.90;71.80
27492;DHT22;14927;51.210;6.838;2023-11-21T00:15:48;13.80;72.50
27492;DHT22;14927;51.210;6.838;2023-11-21T00:18:33;13.80;71.80
27492;DHT22;14927;51.210;6.838;2023-11-21T00:21:18;13.80;71.80
27492;DHT22;14927;51.210;6.838;2023-11-21T00:24:02;13.80;71.80
27492;DHT22;14927;51.210;6.838;2023-11-21T00:26:47;13.80;71.90
27492;DHT22;14927;51.210;6.838;2023-11-21T00:29:32;13.80;72.00
27492;DHT22;14927;51.210;6.838;2023-11-21T00:32:16;13.80;72.00
27492;DHT22;14927;51.210;6.838;2023-11-21T00:35:01;13.80;72.10
27492;DHT22;14927;51.210;6.838;2023-11-21T00:37:46;13.80;72.20
27492;DHT22;14927;51.210;6.838;2023-11-21T00:40:30;13.80;72.20
27492;DHT22;14927;51.210;6.838;2023-11-21T00:43:15;13.80;72.30
27492;DHT22;14927;51.210;6.838;2023-11-21T00:45:59;13.80;72.30
27492;DHT22;14927;51.210;6.838;2023-11-21T00:48:44;13.80;72.20
27492;DHT22;14927;51.210;6.838;2023-11-21T00:51:29;13.80;72.30
27492;DHT22;14927;51.210;6.838;2023-11-21T00:54:13;13.80;72.40
27492;DHT22;14927;51.210;6.838;2023-11-21T00:56:59;13.80;72.30
27492;DHT22;14927;51.210;6.838;2023-11-21T00:59:47;13.80;72.40
27492;DHT22;14927;51.210;6.838;2023-11-21T01:02:32;13.80;72.40
27492;DHT22;14927;51.210;6.838;2023-11-21T01:05:16;13.80;72.40
27492;DHT22;14927;51.210;6.838;2023-11-21T01:08:01;13.80;72.40
27492;DHT22;14927;51.210;6.838;2023-11-21T01:10:45;13.70;72.40
27492;DHT22;14927;51.210;6.838;2023-11-21T01:13:30;13.80;72.50
27492;DHT22;14927;51.210;6.838;2023-11-21T01:16:14;13.80;72.60
27492;DHT22;14927;51.210;6.838;2023-11-21T01:18:59;13.70;72.40
27492;DHT22;14927;51.210;6.838;2023-11-21T01:21:44;13.80;72.40
27492;DHT22;14927;51.210;6.838;2023-11-21T01:24:28;13.70;72.10
27492;DHT22;14927;51.210;6.838;2023-11-21T01:27:13;13.80;71.90
27492;DHT22;14927;51.210;6.838;2023-11-21T01:29:57;13.80;71.60
27492;DHT22;14927;51.210;6.838;2023-11-21T01:32:42;13.80;71.40
27492;DHT22;14927;51.210;6.838;2023-11-21T01:35:28;13.70;71.10
27492;DHT22;14927;51.210;6.838;2023-11-21T01:38:12;13.60;71.10
27492;DHT22;14927;51.210;6.838;2023-11-21T01:40:57;13.60;71.20
27492;DHT22;14927;51.210;6.838;2023-11-21T01:43:41;13.60;71.30
27492;DHT22;14927;51.210;6.838;2023-11-21T01:46:26;13.50;71.40
27492;DHT22;14927;51.210;6.838;2023-11-21T01:49:11;13.50;71.50
27492;DHT22;14927;51.210;6.838;2023-11-21T01:51:57;13.50;71.70
27492;DHT22;14927;51.210;6.838;2023-11-21T01:54:42;13.50;71.80
27492;DHT22;14927;51.210;6.838;2023-11-21T01:57:26;13.40;71.90
27492;DHT22;14927;51.210;6.838;2023-11-21T02:00:11;13.50;72.00
27492;DHT22;14927;51.210;6.838;2023-11-21T02:02:59;13.50;72.10
27492;DHT22;14927;51.210;6.838;2023-11-21T02:05:44;13.50;72.20
27492;DHT22;14927;51.210;6.838;2023-11-21T02:08:28;13.50;72.20
27492;DHT22;14927;51.210;6.838;2023-11-21T02:11:13;13.50;72.20
27492;DHT22;14927;51.210;6.838;2023-11-21T02:13:59;13.50;72.20
27492;DHT22;14927;51.210;6.838;2023-11-21T02:16:44;13.50;72.30
27492;DHT22;14927;51.210;6.838;2023-11-21T02:19:31;13.40;72.20
27492;DHT22;14927;51.210;6.838;2023-11-21T02:22:17;13.60;72.40
27492;DHT22;14927;51.210;6.838;2023-11-21T02:25:03;13.50;73.10
27492;DHT22;14927;51.210;6.838;2023-11-21T02:27:48;13.50;72.30
27492;DHT22;14927;51.210;6.838;2023-11-21T02:30:33;13.50;72.30
27492;DHT22;14927;51.210;6.838;2023-11-21T02:33:17;13.50;72.20
27492;DHT22;14927;51.210;6.838;2023-11-21T02:36:04;13.50;72.20
27492;DHT22;14927;51.210;6.838;2023-11-21T02:38:49;13.50;72.30
27492;DHT22;14927;51.210;6.838;2023-11-21T02:41:34;13.50;72.30
27492;DHT22;14927;51.210;6.838;2023-11-21T02:44:18;13.50;72.40
27492;DHT22;14927;51.210;6.838;2023-11-21T02:47:03;13.60;72.40
27492;DHT22;14927;51.210;6.838;2023-11-21T02:49:48;13.50;72.40
27492;DHT22;14927;51.210;6.838;2023-11-21T02:52:32;13.70;72.50
27492;DHT22;14927;51.210;6.838;2023-11-21T02:55:17;13.50;72.40
27492;DHT22;14927;51.210;6.838;2023-11-21T02:58:04;13.50;72.40
27492;DHT22;14927;51.210;6.838;2023-11-21T03:00:50;13.50;72.40
27492;DHT22;14927;51.210;6.838;2023-11-21T03:03:35;13.40;72.30
27492;DHT22;14927;51.210;6.838;2023-11-21T03:06:23;13.50;72.40
27492;DHT22;14927;51.210;6.838;2023-11-21T03:09:07;13.40;72.40
27492;DHT22;14927;51.210;6.838;2023-11-21T03:11:53;13.50;72.50
27492;DHT22;14927;51.210;6.838;2023-11-21T03:14:39;13.50;72.50
27492;DHT22;14927;51.210;6.838;2023-11-21T03:17:24;13.50;72.50
27492;DHT22;14927;51.210;6.838;2023-11-21T03:20:11;13.50;72.50
27492;DHT22;14927;51.210;6.838;2023-11-21T03:22:56;13.40;72.40
27492;DHT22;14927;51.210;6.838;2023-11-21T03:25:41;13.50;72.50
27492;DHT22;14927;51.210;6.838;2023-11-21T03:28:26;13.40;72.40
27492;DHT22;14927;51.210;6.838;2023-11-21T03:31:11;13.40;72.40
27492;DHT22;14927;51.210;6.838;2023-11-21T03:33:56;13.40;72.40
27492;DHT22;14927;51.210;6.838;2023-11-21T03:36:41;13.40;72.40
27492;DHT22;14927;51.210;6.838;2023-11-21T03:39:25;13.40;72.40
27492;DHT22;14927;51.210;6.838;2023-11-21T03:42:10;13.40;72.40
27492;DHT22;14927;51.210;6.838;2023-11-21T03:44:55;13.50;72.50
27492;DHT22;14927;51.210;6.838;2023-11-21T03:47:41;13.40;72.40
27492;DHT22;14927;51.210;6.838;2023-11-21T03:50:26;13.40;72.50
27492;DHT22;14927;51.210;6.838;2023-11-21T03:53:10;13.40;72.50
27492;DHT22;14927;51.210;6.838;2023-11-21T03:55:55;13.30;72.40
27492;DHT22;14927;51.210;6.838;2023-11-21T03:58:39;13.40;72.40
27492;DHT22;14927;51.210;6.838;2023-11-21T04:01:24;13.30;72.50
27492;DHT22;14927;51.210;6.838;2023-11-21T04:04:08;13.40;72.60
27492;DHT22;14927;51.210;6.838;2023-11-21T04:06:53;13.10;72.50
27492;DHT22;14927;51.210;6.838;2023-11-21T04:09:38;13.40;72.70
27492;DHT22;14927;51.210;6.838;2023-11-21T04:12:22;13.40;72.70
27492;DHT22;14927;51.210;6.838;2023-11-21T04:15:07;13.40;72.80
27492;DHT22;14927;51.210;6.838;2023-11-21T04:17:56;13.40;72.70
27492;DHT22;14927;51.210;6.838;2023-11-21T04:20:41;13.40;72.70
27492;DHT22;14927;51.210;6.838;2023-11-21T04:23:26;13.60;72.70
27492;DHT22;14927;51.210;6.838;2023-11-21T04:26:11;13.40;72.60
27492;DHT22;14927;51.210;6.838;2023-11-21T04:28:56;13.40;72.50
27492;DHT22;14927;51.210;6.838;2023-11-21T04:31:41;13.40;72.50
27492;DHT22;14927;51.210;6.838;2023-11-21T04:34:27;13.40;72.40
27492;DHT22;14927;51.210;6.838;2023-11-21T04:37:14;13.60;72.40
27492;DHT22;14927;51.210;6.838;2023-11-21T04:39:58;13.40;72.20
27492;DHT22;14927;51.210;6.838;2023-11-21T04:42:43;13.30;72.10
27492;DHT22;14927;51.210;6.838;2023-11-21T04:45:28;13.30;72.10
27492;DHT22;14927;51.210;6.838;2023-11-21T04:48:12;13.20;72.10
27492;DHT22;14927;51.210;6.838;2023-11-21T04:50:57;13.30;72.10
27492;DHT22;14927;51.210;6.838;2023-11-21T04:53:41;13.40;72.20
27492;DHT22;14927;51.210;6.838;2023-11-21T04:56:26;13.30;72.20
27492;DHT22;14927;51.210;6.838;2023-11-21T04:59:10;13.30;72.20
27492;DHT22;14927;51.210;6.838;2023-11-21T05:01:55;13.20;72.10
27492;DHT22;14927;51.210;6.838;2023-11-21T05:04:39;13.20;72.20
27492;DHT22;14927;51.210;6.838;2023-11-21T05:07:24;13.30;72.20
27492;DHT22;14927;51.210;6.838;2023-11-21T05:10:12;13.20;72.20
27492;DHT22;14927;51.210;6.838;2023-11-21T05:13:01;13.30;72.40
27492;DHT22;14927;51.210;6.838;2023-11-21T05:15:46;13.20;72.40
27492;DHT22;14927;51.210;6.838;2023-11-21T05:18:31;13.40;72.60
27492;DHT22;14927;51.210;6.838;2023-11-21T05:21:15;13.20;72.50
27492;DHT22;14927;51.210;6.838;2023-11-21T05:24:00;13.20;72.60
27492;DHT22;14927;51.210;6.838;2023-11-21T05:26:44;13.20;72.60
27492;DHT22;14927;51.210;6.838;2023-11-21T05:29:29;13.20;72.60
27492;DHT22;14927;51.210;6.838;2023-11-21T05:32:13;13.20;72.60
27492;DHT22;14927;51.210;6.838;2023-11-21T05:34:58;13.20;72.50
27492;DHT22;14927;51.210;6.838;2023-11-21T05:37:44;13.20;72.60
27492;DHT22;14927;51.210;6.838;2023-11-21T05:40:29;13.20;72.70
27492;DHT22;14927;51.210;6.838;2023-11-21T05:43:14;13.20;72.70
27492;DHT22;14927;51.210;6.838;2023-11-21T05:45:59;13.20;72.70
27492;DHT22;14927;51.210;6.838;2023-11-21T05:48:43;13.20;72.70
27492;DHT22;14927;51.210;6.838;2023-11-21T05:51:29;13.20;72.70
27492;DHT22;14927;51.210;6.838;2023-11-21T05:54:13;13.20;72.70
27492;DHT22;14927;51.210;6.838;2023-11-21T05:56:59;13.20;72.70
27492;DHT22;14927;51.210;6.838;2023-11-21T05:59:43;13.20;72.60
27492;DHT22;14927;51.210;6.838;2023-11-21T06:02:28;13.30;72.60
27492;DHT22;14927;51.210;6.838;2023-11-21T06:05:12;13.30;72.70
27492;DHT22;14927;51.210;6.838;2023-11-21T06:07:57;13.20;72.70
27492;DHT22;14927;51.210;6.838;2023-11-21T06:10:43;13.20;72.70
27492;DHT22;14927;51.210;6.838;2023-11-21T06:13:28;13.20;72.80
27492;DHT22;14927;51.210;6.838;2023-11-21T06:16:12;13.40;72.90
27492;DHT22;14927;51.210;6.838;2023-11-21T06:19:00;13.20;72.90
27492;DHT22;14927;51.210;6.838;2023-11-21T06:21:46;13.20;72.90
27492;DHT22;14927;51.210;6.838;2023-11-21T06:24:31;13.20;73.00
27492;DHT22;14927;51.210;6.838;2023-11-21T06:27:15;13.20;73.00
27492;DHT22;14927;51.210;6.838;2023-11-21T06:30:00;13.20;73.10
27492;DHT22;14927;51.210;6.838;2023-11-21T06:32:45;13.20;73.20
27492;DHT22;14927;51.210;6.838;2023-11-21T06:35:30;13.20;73.20
27492;DHT22;14927;51.210;6.838;2023-11-21T06:38:18;13.20;73.20
27492;DHT22;14927;51.210;6.838;2023-11-21T06:41:02;13.20;73.30
27492;DHT22;14927;51.210;6.838;2023-11-21T06:43:48;13.30;73.40
27492;DHT22;14927;51.210;6.838;2023-11-21T06:46:33;13.20;73.40
27492;DHT22;14927;51.210;6.838;2023-11-21T06:49:31;13.30;73.50
27492;DHT22;14927;51.210;6.838;2023-11-21T06:52:17;13.30;73.50
27492;DHT22;14927;51.210;6.838;2023-11-21T06:55:03;13.20;73.30
27492;DHT22;14927;51.210;6.838;2023-11-21T06:57:48;13.30;73.40
27492;DHT22;14927;51.210;6.838;2023-11-21T07:00:53;13.30;73.50
27492;DHT22;14927;51.210;6.838;2023-11-21T07:03:37;13.40;73.80
27492;DHT22;14927;51.210;6.838;2023-11-21T07:06:22;13.40;73.60
27492;DHT22;14927;51.210;6.838;2023-11-21T07:09:07;13.40;73.50
27492;DHT22;14927;51.210;6.838;2023-11-21T07:11:55;13.40;73.50
27492;DHT22;14927;51.210;6.838;2023-11-21T07:14:40;13.40;73.50
27492;DHT22;14927;51.210;6.838;2023-11-21T07:17:27;13.40;73.50
27492;DHT22;14927;51.210;6.838;2023-11-21T07:20:12;13.50;73.60
27492;DHT22;14927;51.210;6.838;2023-11-21T07:22:58;13.40;73.60
27492;DHT22;14927;51.210;6.838;2023-11-21T07:25:43;13.50;73.50
27492;DHT22;14927;51.210;6.838;2023-11-21T07:28:28;13.70;73.70
27492;DHT22;14927;51.210;6.838;2023-11-21T07:31:14;13.50;73.50
27492;DHT22;14927;51.210;6.838;2023-11-21T07:33:58;13.50;73.50
27492;DHT22;14927;51.210;6.838;2023-11-21T07:36:43;13.60;73.50
27492;DHT22;14927;51.210;6.838;2023-11-21T07:39:27;13.50;73.40
27492;DHT22;14927;51.210;6.838;2023-11-21T07:42:12;13.60;73.40
27492;DHT22;14927;51.210;6.838;2023-11-21T07:44:57;13.60;73.40
27492;DHT22;14927;51.210;6.838;2023-11-21T07:47:44;13.60;73.30
27492;DHT22;14927;51.210;6.838;2023-11-21T07:50:37;13.60;73.30
27492;DHT22;14927;51.210;6.838;2023-11-21T07:53:44;13.60;73.20
27492;DHT22;14927;51.210;6.838;2023-11-21T07:56:42;13.90;73.30
27492;DHT22;14927;51.210;6.838;2023-11-21T07:59:41;13.70;73.10
27492;DHT22;14927;51.210;6.838;2023-11-21T08:02:25;13.60;73.00
27492;DHT22;14927;51.210;6.838;2023-11-21T08:05:12;13.70;73.10
27492;DHT22;14927;51.210;6.838;2023-11-21T08:07:56;13.90;73.30
27492;DHT22;14927;51.210;6.838;2023-11-21T08:10:41;13.70;73.30
27492;DHT22;14927;51.210;6.838;2023-11-21T08:13:27;13.70;73.30
27492;DHT22;14927;51.210;6.838;2023-11-21T08:16:12;13.70;73.30
27492;DHT22;14927;51.210;6.838;2023-11-21T08:18:57;13.70;73.20
27492;DHT22;14927;51.210;6.838;2023-11-21T08:21:42;13.80;73.30
27492;DHT22;14927;51.210;6.838;2023-11-21T08:24:26;13.80;73.30
27492;DHT22;14927;51.210;6.838;2023-11-21T08:27:11;13.80;73.30
27492;DHT22;14927;51.210;6.838;2023-11-21T08:29:56;13.80;73.30
27492;DHT22;14927;51.210;6.838;2023-11-21T08:32:41;13.90;73.30
27492;DHT22;14927;51.210;6.838;2023-11-21T08:35:25;13.90;73.10
27492;DHT22;14927;51.210;6.838;2023-11-21T08:38:10;13.90;73.10
27492;DHT22;14927;51.210;6.838;2023-11-21T08:40:55;13.90;73.00
27492;DHT22;14927;51.210;6.838;2023-11-21T08:43:39;13.90;73.10
27492;DHT22;14927;51.210;6.838;2023-11-21T08:46:24;13.90;73.10
27492;DHT22;14927;51.210;6.838;2023-11-21T08:49:10;13.90;73.10
27492;DHT22;14927;51.210;6.838;2023-11-21T08:51:55;13.90;73.10
27492;DHT22;14927;51.210;6.838;2023-11-21T08:54:41;14.00;73.20
27492;DHT22;14927;51.210;6.838;2023-11-21T08:57:27;14.00;73.10
27492;DHT22;14927;51.210;6.838;2023-11-21T09:00:12;14.00;73.10
27492;DHT22;14927;51.210;6.838;2023-11-21T09:03:01;14.00;72.90
27492;DHT22;14927;51.210;6.838;2023-11-21T09:05:52;14.20;72.80
27492;DHT22;14927;51.210;6.838;2023-11-21T09:08:37;14.10;72.70
27492;DHT22;14927;51.210;6.838;2023-11-21T09:11:22;14.10;72.60
27492;DHT22;14927;51.210;6.838;2023-11-21T09:14:07;14.10;72.50
27492;DHT22;14927;51.210;6.838;2023-11-21T09:16:52;14.10;72.40
27492;DHT22;14927;51.210;6.838;2023-11-21T09:19:37;14.10;72.30
27492;DHT22;14927;51.210;6.838;2023-11-21T09:22:22;14.10;72.20
27492;DHT22;14927;51.210;6.838;2023-11-21T09:25:09;14.20;72.30
27492;DHT22;14927;51.210;6.838;2023-11-21T09:27:53;14.20;72.20
27492;DHT22;14927;51.210;6.838;2023-11-21T09:30:40;14.30;72.40
27492;DHT22;14927;51.210;6.838;2023-11-21T09:33:31;14.30;72.40
27492;DHT22;14927;51.210;6.838;2023-11-21T09:36:19;14.20;72.10
27492;DHT22;14927;51.210;6.838;2023-11-21T09:39:05;14.20;72.00
27492;DHT22;14927;51.210;6.838;2023-11-21T09:41:59;14.30;72.00
27492;DHT22;14927;51.210;6.838;2023-11-21T09:47:58;14.30;71.70
27492;DHT22;14927;51.210;6.838;2023-11-21T09:50:44;14.30;71.70
27492;DHT22;14927;51.210;6.838;2023-11-21T09:53:32;14.30;71.70
27492;DHT22;14927;51.210;6.838;2023-11-21T09:56:17;14.30;71.60
27492;DHT22;14927;51.210;6.838;2023-11-21T09:59:07;14.30;71.50
27492;DHT22;14927;51.210;6.838;2023-11-21T10:01:54;14.40;71.60
27492;DHT22;14927;51.210;6.838;2023-11-21T10:04:39;14.40;71.60
27492;DHT22;14927;51.210;6.838;2023-11-21T10:07:24;14.40;71.60
27492;DHT22;14927;51.210;6.838;2023-11-21T10:10:09;14.40;71.80
27492;DHT22;14927;51.210;6.838;2023-11-21T10:12:56;14.40;71.80
27492;DHT22;14927;51.210;6.838;2023-11-21T10:15:41;14.40;71.80
27492;DHT22;14927;51.210;6.838;2023-11-21T10:18:34;14.40;71.70
27492;DHT22;14927;51.210;6.838;2023-11-21T10:21:24;14.40;71.60
27492;DHT22;14927;51.210;6.838;2023-11-21T10:24:09;14.30;71.40
27492;DHT22;14927;51.210;6.838;2023-11-21T10:26:53;14.40;71.40
27492;DHT22;14927;51.210;6.838;2023-11-21T10:29:39;14.50;71.50
27492;DHT22;14927;51.210;6.838;2023-11-21T10:32:28;14.50;71.40
27492;DHT22;14927;51.210;6.838;2023-11-21T10:35:15;14.40;71.20
27492;DHT22;14927;51.210;6.838;2023-11-21T10:38:00;14.50;71.30
27492;DHT22;14927;51.210;6.838;2023-11-21T10:40:45;14.50;71.30
27492;DHT22;14927;51.210;6.838;2023-11-21T10:43:31;14.50;71.10
27492;DHT22;14927;51.210;6.838;2023-11-21T10:46:15;14.60;71.10
27492;DHT22;14927;51.210;6.838;2023-11-21T10:49:00;14.50;71.00
27492;DHT22;14927;51.210;6.838;2023-11-21T10:51:46;14.50;70.90
27492;DHT22;14927;51.210;6.838;2023-11-21T10:58:53;14.60;70.80
27492;DHT22;14927;51.210;6.838;2023-11-21T11:01:38;14.60;70.90
27492;DHT22;14927;51.210;6.838;2023-11-21T11:04:23;14.60;70.90
27492;DHT22;14927;51.210;6.838;2023-11-21T11:07:12;14.60;71.10
27492;DHT22;14927;51.210;6.838;2023-11-21T11:09:58;14.60;71.00
27492;DHT22;14927;51.210;6.838;2023-11-21T11:16:44;14.60;70.70
27492;DHT22;14927;51.210;6.838;2023-11-21T11:19:29;14.90;70.90
27492;DHT22;14927;51.210;6.838;2023-11-21T11:22:34;14.70;70.70
27492;DHT22;14927;51.210;6.838;2023-11-21T11:29:35;14.90;70.30
27492;DHT22;14927;51.210;6.838;2023-11-21T11:39:39;14.80;70.00
27492;DHT22;14927;51.210;6.838;2023-11-21T11:42:42;14.80;69.90
27492;DHT22;14927;51.210;6.838;2023-11-21T11:45:59;14.90;70.00
27492;DHT22;14927;51.210;6.838;2023-11-21T11:48:48;14.80;70.10
27492;DHT22;14927;51.210;6.838;2023-11-21T11:51:47;14.80;70.10
27492;DHT22;14927;51.210;6.838;2023-11-21T11:54:35;14.90;70.20
27492;DHT22;14927;51.210;6.838;2023-11-21T11:57:24;14.80;70.20
27492;DHT22;14927;51.210;6.838;2023-11-21T12:00:22;14.80;70.40
27492;DHT22;14927;51.210;6.838;2023-11-21T12:03:27;14.90;70.50
27492;DHT22;14927;51.210;6.838;2023-11-21T12:06:35;14.90;70.70
27492;DHT22;14927;51.210;6.838;2023-11-21T12:09:24;14.70;70.40
27492;DHT22;14927;51.210;6.838;2023-11-21T12:12:10;14.90;70.40
27492;DHT22;14927;51.210;6.838;2023-11-21T12:14:55;14.90;70.50
27492;DHT22;14927;51.210;6.838;2023-11-21T12:17:41;15.00;70.50
27492;DHT22;14927;51.210;6.838;2023-11-21T12:20:28;15.00;70.30
27492;DHT22;14927;51.210;6.838;2023-11-21T12:23:22;15.00;70.10
27492;DHT22;14927;51.210;6.838;2023-11-21T12:26:07;15.10;70.10
27492;DHT22;14927;51.210;6.838;2023-11-21T12:28:53;15.10;70.00
27492;DHT22;14927;51.210;6.838;2023-11-21T12:31:41;15.10;70.00
27492;DHT22;14927;51.210;6.838;2023-11-21T12:37:57;15.20;70.10
27492;DHT22;14927;51.210;6.838;2023-11-21T12:40:41;15.20;70.00
27492;DHT22;14927;51.210;6.838;2023-11-21T12:43:25;15.20;69.80
27492;DHT22;14927;51.210;6.838;2023-11-21T12:46:11;15.20;69.90
27492;DHT22;14927;51.210;6.838;2023-11-21T12:49:00;15.20;69.70
27492;DHT22;14927;51.210;6.838;2023-11-21T12:51:45;15.20;69.70
27492;DHT22;14927;51.210;6.838;2023-11-21T12:54:30;15.30;69.60
27492;DHT22;14927;51.210;6.838;2023-11-21T12:57:15;15.30;69.40
27492;DHT22;14927;51.210;6.838;2023-11-21T13:00:00;15.30;69.20
27492;DHT22;14927;51.210;6.838;2023-11-21T13:02:47;15.30;68.90
27492;DHT22;14927;51.210;6.838;2023-11-21T13:05:37;15.40;68.90
27492;DHT22;14927;51.210;6.838;2023-11-21T13:08:25;15.40;68.90
27492;DHT22;14927;51.210;6.838;2023-11-21T13:11:10;15.40;68.80
27492;DHT22;14927;51.210;6.838;2023-11-21T13:13:55;15.40;68.70
27492;DHT22;14927;51.210;6.838;2023-11-21T13:16:40;15.40;68.70
27492;DHT22;14927;51.210;6.838;2023-11-21T13:19:30;15.50;68.70
27492;DHT22;14927;51.210;6.838;2023-11-21T13:22:15;15.40;68.50
27492;DHT22;14927;51.210;6.838;2023-11-21T13:24:59;15.50;68.40
27492;DHT22;14927;51.210;6.838;2023-11-21T13:27:44;15.50;68.40
27492;DHT22;14927;51.210;6.838;2023-11-21T13:30:31;15.50;68.40
27492;DHT22;14927;51.210;6.838;2023-11-21T13:33:59;15.50;68.40
27492;DHT22;14927;51.210;6.838;2023-11-21T13:37:06;15.40;68.10
27492;DHT22;14927;51.210;6.838;2023-11-21T13:39:51;15.50;68.10
27492;DHT22;14927;51.210;6.838;2023-11-21T13:42:36;15.50;68.10
27492;DHT22;14927;51.210;6.838;2023-11-21T13:45:22;15.50;68.20
27492;DHT22;14927;51.210;6.838;2023-11-21T13:48:07;15.50;68.10
27492;DHT22;14927;51.210;6.838;2023-11-21T13:50:57;15.50;68.10
27492;DHT22;14927;51.210;6.838;2023-11-21T13:53:45;15.70;68.30
27492;DHT22;14927;51.210;6.838;2023-11-21T13:56:39;15.50;68.10
27492;DHT22;14927;51.210;6.838;2023-11-21T13:59:25;15.60;68.10
27492;DHT22;14927;51.210;6.838;2023-11-21T14:02:12;15.60;68.10
27492;DHT22;14927;51.210;6.838;2023-11-21T14:05:03;15.60;68.00
27492;DHT22;14927;51.210;6.838;2023-11-21T14:07:53;15.60;67.90
27492;DHT22;14927;51.210;6.838;2023-11-21T14:10:37;15.60;67.80
27492;DHT22;14927;51.210;6.838;2023-11-21T14:13:27;15.60;67.80
27492;DHT22;14927;51.210;6.838;2023-11-21T14:16:11;15.60;67.80
27492;DHT22;14927;51.210;6.838;2023-11-21T14:18:58;15.60;67.90
27492;DHT22;14927;51.210;6.838;2023-11-21T14:21:53;15.60;68.00
27492;DHT22;14927;51.210;6.838;2023-11-21T14:24:38;15.70;68.20
27492;DHT22;14927;51.210;6.838;2023-11-21T14:27:28;15.60;68.20
27492;DHT22;14927;51.210;6.838;2023-11-21T14:30:13;15.60;68.30
27492;DHT22;14927;51.210;6.838;2023-11-21T14:32:59;15.50;68.30
27492;DHT22;14927;51.210;6.838;2023-11-21T14:35:44;15.50;68.40
27492;DHT22;14927;51.210;6.838;2023-11-21T14:38:31;15.50;68.50
27492;DHT22;14927;51.210;6.838;2023-11-21T14:41:15;15.50;68.60
27492;DHT22;14927;51.210;6.838;2023-11-21T14:44:01;15.50;68.70
27492;DHT22;14927;51.210;6.838;2023-11-21T14:46:54;15.50;68.70
27492;DHT22;14927;51.210;6.838;2023-11-21T14:49:42;15.40;68.70
27492;DHT22;14927;51.210;6.838;2023-11-21T14:52:53;15.40;68.70
27492;DHT22;14927;51.210;6.838;2023-11-21T14:55:40;15.40;68.70
27492;DHT22;14927;51.210;6.838;2023-11-21T14:58:34;15.40;68.70
27492;DHT22;14927;51.210;6.838;2023-11-21T15:01:20;15.40;68.60
27492;DHT22;14927;51.210;6.838;2023-11-21T15:04:19;15.40;68.60
27492;DHT22;14927;51.210;6.838;2023-11-21T15:07:20;15.40;68.60
27492;DHT22;14927;51.210;6.838;2023-11-21T15:10:05;15.30;68.50
27492;DHT22;14927;51.210;6.838;2023-11-21T15:12:55;15.30;68.60
27492;DHT22;14927;51.210;6.838;2023-11-21T15:15:40;15.30;68.70
27492;DHT22;14927;51.210;6.838;2023-11-21T15:18:25;15.30;68.70
27492;DHT22;14927;51.210;6.838;2023-11-21T15:21:11;15.30;68.80
27492;DHT22;14927;51.210;6.838;2023-11-21T15:23:55;15.30;68.80
27492;DHT22;14927;51.210;6.838;2023-11-21T15:26:40;15.20;68.80
27492;DHT22;14927;51.210;6.838;2023-11-21T15:29:25;15.20;69.40
27492;DHT22;14927;51.210;6.838;2023-11-21T15:32:10;15.20;68.80
27492;DHT22;14927;51.210;6.838;2023-11-21T15:34:58;15.20;68.80
27492;DHT22;14927;51.210;6.838;2023-11-21T15:37:45;15.20;68.80
27492;DHT22;14927;51.210;6.838;2023-11-21T15:40:37;15.40;68.80
27492;DHT22;14927;51.210;6.838;2023-11-21T15:43:22;15.10;68.70
27492;DHT22;14927;51.210;6.838;2023-11-21T15:46:11;15.20;68.60
27492;DHT22;14927;51.210;6.838;2023-11-21T15:49:20;15.20;68.70
27492;DHT22;14927;51.210;6.838;2023-11-21T15:56:04;15.20;68.60
27492;DHT22;14927;51.210;6.838;2023-11-21T15:59:30;15.10;68.50
27492;DHT22;14927;51.210;6.838;2023-11-21T16:02:48;15.10;68.30
27492;DHT22;14927;51.210;6.838;2023-11-21T16:05:41;15.10;68.10
27492;DHT22;14927;51.210;6.838;2023-11-21T16:08:26;15.10;68.00
27492;DHT22;14927;51.210;6.838;2023-11-21T16:11:10;15.10;67.90
27492;DHT22;14927;51.210;6.838;2023-11-21T16:13:55;14.90;67.70
27492;DHT22;14927;51.210;6.838;2023-11-21T16:17:08;14.90;67.40
27492;DHT22;14927;51.210;6.838;2023-11-21T16:20:16;15.00;66.80
27492;DHT22;14927;51.210;6.838;2023-11-21T16:23:03;14.80;67.20
27492;DHT22;14927;51.210;6.838;2023-11-21T16:25:48;14.90;67.00
27492;DHT22;14927;51.210;6.838;2023-11-21T16:28:38;14.80;67.00
27492;DHT22;14927;51.210;6.838;2023-11-21T16:31:25;14.70;67.00
27492;DHT22;14927;51.210;6.838;2023-11-21T16:34:14;14.80;67.00
27492;DHT22;14927;51.210;6.838;2023-11-21T16:37:02;14.80;66.80
27492;DHT22;14927;51.210;6.838;2023-11-21T16:39:51;14.80;66.70
27492;DHT22;14927;51.210;6.838;2023-11-21T16:42:41;14.70;66.60
27492;DHT22;14927;51.210;6.838;2023-11-21T16:45:38;14.70;66.70
27492;DHT22;14927;51.210;6.838;2023-11-21T16:48:25;14.70;66.50
27492;DHT22;14927;51.210;6.838;2023-11-21T16:51:17;14.80;66.80
27492;DHT22;14927;51.210;6.838;2023-11-21T16:54:04;14.60;66.60
27492;DHT22;14927;51.210;6.838;2023-11-21T16:56:53;14.60;66.60
27492;DHT22;14927;51.210;6.838;2023-11-21T16:59:38;14.60;66.50
27492;DHT22;14927;51.210;6.838;2023-11-21T17:02:26;14.60;66.50
27492;DHT22;14927;51.210;6.838;2023-11-21T17:05:10;14.50;66.30
27492;DHT22;14927;51.210;6.838;2023-11-21T17:07:58;14.50;66.20
27492;DHT22;14927;51.210;6.838;2023-11-21T17:10:42;14.50;66.20
27492;DHT22;14927;51.210;6.838;2023-11-21T17:13:27;14.50;66.20
27492;DHT22;14927;51.210;6.838;2023-11-21T17:16:12;14.40;66.10
27492;DHT22;14927;51.210;6.838;2023-11-21T17:18:59;14.40;66.20
27492;DHT22;14927;51.210;6.838;2023-11-21T17:21:44;14.30;66.20
27492;DHT22;14927;51.210;6.838;2023-11-21T17:24:29;14.30;66.40
27492;DHT22;14927;51.210;6.838;2023-11-21T17:27:17;14.30;66.40
27492;DHT22;14927;51.210;6.838;2023-11-21T17:30:04;14.00;65.90
27492;DHT22;14927;51.210;6.838;2023-11-21T17:32:54;14.30;65.90
27492;DHT22;14927;51.210;6.838;2023-11-21T17:35:42;14.40;65.60
27492;DHT22;14927;51.210;6.838;2023-11-21T17:38:32;14.20;65.20
27492;DHT22;14927;51.210;6.838;2023-11-21T17:41:21;14.20;65.20
27492;DHT22;14927;51.210;6.838;2023-11-21T17:44:10;14.10;65.00
27492;DHT22;14927;51.210;6.838;2023-11-21T17:47:01;14.00;64.70
27492;DHT22;14927;51.210;6.838;2023-11-21T17:49:51;14.00;64.60
27492;DHT22;14927;51.210;6.838;2023-11-21T17:52:36;14.00;64.50
27492;DHT22;14927;51.210;6.838;2023-11-21T17:55:30;13.90;64.40
27492;DHT22;14927;51.210;6.838;2023-11-21T17:58:24;13.90;64.10
27492;DHT22;14927;51.210;6.838;2023-11-21T18:01:25;14.10;64.40
27492;DHT22;14927;51.210;6.838;2023-11-21T18:04:19;13.80;64.10
27492;DHT22;14927;51.210;6.838;2023-11-21T18:07:07;13.80;64.10